createdAt,value
2019-02-08T00:02:23.126Z,16.84
2019-02-08T00:07:23.348Z,16.84
2019-02-08T00:12:23.084Z,16.84
2019-02-08T00:17:23.260Z,16.86
2019-02-08T00:22:23.141Z,16.84
2019-02-08T00:27:23.306Z,16.87
2019-02-08T00:32:23.217Z,16.86
2019-02-08T00:37:23.281Z,16.82
2019-02-08T00:42:23.233Z,16.84
2019-02-08T00:47:23.119Z,16.86
2019-02-08T00:52:23.163Z,16.83
2019-02-08T00:57:23.184Z,16.81
2019-02-08T01:02:23.250Z,16.81
2019-02-08T01:07:23.455Z,16.81
2019-02-08T01:12:23.410Z,16.83
2019-02-08T01:17:23.214Z,16.83
2019-02-08T01:22:23.148Z,16.83
2019-02-08T01:27:23.232Z,16.83
2019-02-08T01:32:23.264Z,16.83
2019-02-08T01:37:23.180Z,16.80
2019-02-08T01:42:23.196Z,16.84
2019-02-08T01:47:23.231Z,16.83
2019-02-08T01:52:23.273Z,16.83
2019-02-08T01:57:24.364Z,16.83
2019-02-08T02:02:23.241Z,16.82
2019-02-08T02:07:24.304Z,16.83
2019-02-08T02:12:23.204Z,16.81
2019-02-08T02:17:23.242Z,16.84
2019-02-08T02:22:23.280Z,16.81
2019-02-08T02:27:23.228Z,16.83
2019-02-08T02:32:23.277Z,16.79
2019-02-08T02:37:24.301Z,16.83
2019-02-08T02:42:23.247Z,16.82
2019-02-08T02:47:23.194Z,16.80
2019-02-08T02:52:23.278Z,16.83
2019-02-08T02:57:23.205Z,16.84
2019-02-08T03:02:23.360Z,16.82
2019-02-08T03:07:23.492Z,16.81
2019-02-08T03:12:23.221Z,16.80
2019-02-08T03:17:23.800Z,16.78
2019-02-08T03:22:23.338Z,16.80
2019-02-08T03:27:23.220Z,16.81
2019-02-08T03:32:23.217Z,16.82
2019-02-08T03:37:23.384Z,16.80
2019-02-08T03:42:23.228Z,16.84
2019-02-08T03:47:23.379Z,16.80
2019-02-08T03:52:23.401Z,16.81
2019-02-08T03:57:23.539Z,16.84
2019-02-08T04:02:23.246Z,16.81
2019-02-08T04:07:23.283Z,16.82
2019-02-08T04:12:23.534Z,16.82
2019-02-08T04:17:23.383Z,16.81
2019-02-08T04:22:23.419Z,16.80
2019-02-08T04:27:23.328Z,16.82
2019-02-08T04:32:23.625Z,16.83
2019-02-08T04:37:23.298Z,16.81
2019-02-08T04:42:23.452Z,16.82
2019-02-08T04:47:23.569Z,16.82
2019-02-08T04:52:23.302Z,16.81
2019-02-08T04:57:23.331Z,16.81
2019-02-08T05:02:23.481Z,16.82
2019-02-08T05:07:23.301Z,16.81
2019-02-08T05:12:23.351Z,16.81
2019-02-08T05:17:23.475Z,16.80
2019-02-08T05:22:23.432Z,16.78
2019-02-08T05:27:23.354Z,16.79
2019-02-08T05:32:23.502Z,16.81
2019-02-08T05:37:23.752Z,16.77
2019-02-08T05:42:23.372Z,16.77
2019-02-08T05:47:23.421Z,16.80
2019-02-08T05:52:23.410Z,16.82
2019-02-08T05:57:23.552Z,16.81
2019-02-08T06:02:23.412Z,16.81
2019-02-08T06:07:23.422Z,16.83
2019-02-08T06:12:23.477Z,16.80
2019-02-08T06:17:23.542Z,16.83
2019-02-08T06:22:23.424Z,16.82
2019-02-08T06:27:23.458Z,16.80
2019-02-08T06:32:23.600Z,16.81
2019-02-08T06:37:23.423Z,16.80
2019-02-08T06:42:23.420Z,16.81
2019-02-08T06:47:23.738Z,16.81
2019-02-08T06:52:23.532Z,16.82
2019-02-08T06:57:23.431Z,16.81
2019-02-08T07:02:23.605Z,16.82
2019-02-08T07:07:23.481Z,16.80
2019-02-08T07:12:23.519Z,16.79
2019-02-08T07:17:23.829Z,16.80
2019-02-08T07:22:23.582Z,16.80
2019-02-08T07:27:23.602Z,16.80
2019-02-08T07:32:23.515Z,16.80
2019-02-08T07:37:23.569Z,16.82
2019-02-08T07:42:23.493Z,16.82
2019-02-08T07:47:23.547Z,16.82
2019-02-08T07:52:23.452Z,16.80
2019-02-08T07:57:23.614Z,16.81
2019-02-08T08:02:23.556Z,16.82
2019-02-08T08:07:23.595Z,16.81
2019-02-08T08:12:23.480Z,16.82
2019-02-08T08:17:23.747Z,16.82
2019-02-08T08:22:23.706Z,16.82
2019-02-08T08:27:24.257Z,16.83
2019-02-08T08:32:23.616Z,16.81
2019-02-08T08:37:24.755Z,16.82
2019-02-08T08:42:23.516Z,16.84
2019-02-08T08:47:23.562Z,16.83
2019-02-08T08:52:23.563Z,16.81
2019-02-08T08:57:23.626Z,16.82
2019-02-08T09:02:23.774Z,16.82
2019-02-08T09:07:23.669Z,16.84
2019-02-08T09:12:23.713Z,16.84
2019-02-08T09:17:23.573Z,16.84
2019-02-08T09:22:23.568Z,16.82
2019-02-08T09:27:23.751Z,16.82
2019-02-08T09:32:23.652Z,16.83
2019-02-08T09:37:23.585Z,16.83
2019-02-08T09:42:23.653Z,16.84
2019-02-08T09:47:23.646Z,16.84
2019-02-08T09:52:23.542Z,16.82
2019-02-08T09:57:23.612Z,16.82
2019-02-08T10:02:23.956Z,16.86
2019-02-08T10:07:23.591Z,16.83
2019-02-08T10:12:23.598Z,16.83
2019-02-08T10:17:23.652Z,16.84
2019-02-08T10:22:23.620Z,16.84
2019-02-08T10:27:23.614Z,16.85
2019-02-08T10:32:23.767Z,16.86
2019-02-08T10:37:23.692Z,16.82
2019-02-08T10:42:23.627Z,16.86
2019-02-08T10:47:23.750Z,16.86
2019-02-08T10:52:24.738Z,16.85
2019-02-08T10:57:23.755Z,16.88
2019-02-08T11:02:23.671Z,16.86
2019-02-08T11:07:27.904Z,16.86
2019-02-08T11:12:23.633Z,16.85
2019-02-08T11:17:23.674Z,16.83
2019-02-08T11:22:23.940Z,16.87
2019-02-08T11:27:23.671Z,16.86
2019-02-08T11:32:23.701Z,16.84
2019-02-08T11:37:23.726Z,16.83
2019-02-08T11:42:23.881Z,16.85
2019-02-08T11:47:23.799Z,16.83
2019-02-08T11:52:23.912Z,16.84
2019-02-08T11:57:23.763Z,16.83
2019-02-08T12:02:23.714Z,16.86
2019-02-08T12:07:23.741Z,16.85
2019-02-08T12:12:23.794Z,16.83
2019-02-08T12:17:23.703Z,16.86
2019-02-08T12:22:23.721Z,16.87
2019-02-08T12:27:23.710Z,16.82
2019-02-08T12:32:23.798Z,16.84
2019-02-08T12:37:23.722Z,16.83
2019-02-08T12:42:23.773Z,16.83
2019-02-08T12:47:23.905Z,16.84
2019-02-08T12:52:23.870Z,16.87
2019-02-08T12:57:23.972Z,16.84
2019-02-08T13:02:24.128Z,16.85
2019-02-08T13:07:23.951Z,16.83
2019-02-08T13:12:23.748Z,16.86
2019-02-08T13:17:23.814Z,16.84
2019-02-08T13:22:23.855Z,16.84
2019-02-08T13:27:23.876Z,16.85
2019-02-08T13:32:23.807Z,16.86
2019-02-08T13:37:23.856Z,16.85
2019-02-08T13:42:23.771Z,16.86
2019-02-08T13:47:23.834Z,16.82
2019-02-08T13:52:23.845Z,16.87
2019-02-08T13:57:23.916Z,16.83
2019-02-08T14:02:23.923Z,16.84
2019-02-08T14:07:23.878Z,16.87
2019-02-08T14:12:23.987Z,16.84
2019-02-08T14:17:24.138Z,16.84
2019-02-08T14:22:24.802Z,16.82
2019-02-08T14:27:23.940Z,16.82
2019-02-08T14:32:23.843Z,16.86
2019-02-08T14:37:23.855Z,16.86
2019-02-08T14:42:23.896Z,16.84
2019-02-08T14:47:23.840Z,16.84
2019-02-08T14:52:23.878Z,16.87
2019-02-08T14:57:23.921Z,16.83
2019-02-08T15:02:23.852Z,16.87
2019-02-08T15:07:23.904Z,16.84
2019-02-08T15:12:24.037Z,16.85
2019-02-08T15:17:23.951Z,16.85
2019-02-08T15:22:24.009Z,16.86
2019-02-08T15:27:24.457Z,16.83
2019-02-08T15:32:23.945Z,16.84
2019-02-08T15:37:24.092Z,16.81
2019-02-08T15:42:24.114Z,16.84
2019-02-08T15:47:24.066Z,16.86
2019-02-08T15:52:23.901Z,16.82
2019-02-08T15:57:24.003Z,16.84
2019-02-08T16:02:23.972Z,16.86
2019-02-08T16:07:23.995Z,16.84
2019-02-08T16:12:23.941Z,16.82
2019-02-08T16:17:23.964Z,16.87
2019-02-08T16:22:24.109Z,16.87
2019-02-08T16:27:23.923Z,16.83
2019-02-08T16:32:23.973Z,16.86
2019-02-08T16:37:24.100Z,16.84
2019-02-08T16:42:24.130Z,16.86
2019-02-08T16:47:23.930Z,16.90
2019-02-08T16:52:24.196Z,16.88
2019-02-08T16:57:24.129Z,16.86
2019-02-08T17:02:23.933Z,16.88
2019-02-08T17:07:23.996Z,16.88
2019-02-08T17:12:24.054Z,16.85
2019-02-08T17:17:24.192Z,16.86
2019-02-08T17:22:24.030Z,16.84
2019-02-08T17:27:24.062Z,16.87
2019-02-08T17:32:23.971Z,16.84
2019-02-08T17:37:23.991Z,16.83
2019-02-08T17:42:23.996Z,16.86
2019-02-08T17:47:24.220Z,16.86
2019-02-08T17:52:24.125Z,16.86
2019-02-08T17:57:24.039Z,16.91
2019-02-08T18:02:24.109Z,16.88
2019-02-08T18:07:24.033Z,16.88
2019-02-08T18:12:24.156Z,16.88
2019-02-08T18:17:24.226Z,16.88
2019-02-08T18:22:24.148Z,16.89
2019-02-08T18:27:24.230Z,16.88
2019-02-08T18:32:24.223Z,16.87
2019-02-08T18:37:24.214Z,16.86
2019-02-08T18:42:24.171Z,16.86
2019-02-08T18:47:24.320Z,16.86
2019-02-08T18:52:24.323Z,16.90
2019-02-08T18:57:24.271Z,16.83
2019-02-08T19:02:24.115Z,16.85
2019-02-08T19:07:24.144Z,16.82
2019-02-08T19:12:24.189Z,16.82
2019-02-08T19:17:24.089Z,16.82
2019-02-08T19:22:24.135Z,16.83
2019-02-08T19:27:24.058Z,16.83
2019-02-08T19:32:24.088Z,16.84
2019-02-08T19:37:24.111Z,16.85
2019-02-08T19:42:24.182Z,16.85
2019-02-08T19:47:24.201Z,16.82
2019-02-08T19:52:24.121Z,16.84
2019-02-08T19:57:24.382Z,16.83
2019-02-08T20:02:24.121Z,16.83
2019-02-08T20:07:24.137Z,16.84
2019-02-08T20:12:24.184Z,16.83
2019-02-08T20:17:24.129Z,16.81
2019-02-08T20:22:24.171Z,16.83
2019-02-08T20:27:24.201Z,16.83
2019-02-08T20:32:24.204Z,16.80
2019-02-08T20:37:24.132Z,16.83
2019-02-08T20:42:24.169Z,16.81
2019-02-08T20:47:24.312Z,16.83
2019-02-08T20:52:24.356Z,16.85
2019-02-08T20:57:24.205Z,16.81
2019-02-08T21:02:24.346Z,16.83
2019-02-08T21:07:24.445Z,16.79
2019-02-08T21:12:24.324Z,16.81
2019-02-08T21:17:24.530Z,16.83
2019-02-08T21:22:24.390Z,16.82
2019-02-08T21:27:24.220Z,16.83
2019-02-08T21:32:24.368Z,16.83
2019-02-08T21:37:24.373Z,16.84
2019-02-08T21:42:24.310Z,16.82
2019-02-08T21:47:24.310Z,16.83
2019-02-08T21:52:24.266Z,16.82
2019-02-08T21:57:24.235Z,16.82
2019-02-08T22:02:24.262Z,16.83
2019-02-08T22:07:24.297Z,16.81
2019-02-08T22:12:24.291Z,16.82
2019-02-08T22:17:24.341Z,16.82
2019-02-08T22:22:24.670Z,16.83
2019-02-08T22:27:24.439Z,16.81
2019-02-08T22:32:24.561Z,16.82
2019-02-08T22:37:24.398Z,16.80
2019-02-08T22:42:24.441Z,16.82
2019-02-08T22:47:24.332Z,16.81
2019-02-08T22:52:24.258Z,16.82
2019-02-08T22:57:24.513Z,16.79
2019-02-08T23:02:24.660Z,16.82
2019-02-08T23:07:24.406Z,16.81
2019-02-08T23:12:24.401Z,16.81
2019-02-08T23:17:24.468Z,16.84
2019-02-08T23:22:24.401Z,16.82
2019-02-08T23:27:24.523Z,16.82
2019-02-08T23:32:24.543Z,16.82
2019-02-08T23:37:26.000Z,16.82
2019-02-08T23:42:24.424Z,16.83
2019-02-08T23:47:24.482Z,16.82
2019-02-08T23:52:24.275Z,16.81
2019-02-08T23:57:24.630Z,16.82
